VVDN/DAD METAR and TAF weather

Enter ICAO airport designator
Station Type Date Time Source
VVDN METAR 2019/02/20 17:00 UTC NOAA

VVDN 201700Z 15003KT 110V180 7000 FEW013 BKN060 26/23 Q1016 NOSIG


Station Type Date Time Source
VVDN Decoded METAR 2019/02/20 17:00 UTC NOAA

Da Nang, Vietnam (VVDN) 16-02N 108-11E 7M
Feb 20, 2019 - 12:00 PM EST / 2019.02.20 1700 UTC
Wind: from the SSE (150 degrees) at 3 MPH (3 KT) (direction variable):0
Visibility: 4 mile(s):0
Sky conditions: mostly cloudy
Temperature: 78 F (26 C)
Dew Point: 73 F (23 C)
Relative Humidity: 83%
Pressure (altimeter): 30.00 in. Hg (1016 hPa)
ob: VVDN 201700Z 15003KT 110V180 7000 FEW013 BKN060 26/23 Q1016 NOSIG
cycle: 17

Station Type Date Time Source
VVDN TAF 2019/02/20 12:36 UTC NOAA

TAF VVDN 201100Z 2012/2112 12006KT 8000 FEW015
BECMG 2020/2022 4000 BR
BECMG 2100/2101 6000 NSW


Example: see airport list